Del Norte, CO

11:27 AM MDT on August 27, 2014 (GMT -0600)
Pagosa Springs | Change Station
CLOSE
Current Station
Airport
Location: Pagosa Springs,
Elevation: 7657 ft
Nearby Weather Stations

Elev 7657 ft 37.29 °N, 107.06 °W | Updated 12 minutes ago

Clear
Clear
60 °F
Feels Like 60 °F
N
7
Wind Variable Wind from SSW

Today
High -- | Low -- °F
--% Chance of Precip.
Yesterday
High -- | Low -- °F
Precip. -- in
6:31 AM 7:41 PM
Waxing Crescent, 4% visible
Pressure 30.43 in
Visibility 10.0 miles
Clouds Clear
Dew Point 46 °F
Humidity 61%
Rainfall 0.00 in
Snow Depth Not available.
UV 9 out of 12
Pollen 9.70 out of 12
Air Quality Not available.
Flu Activity Not available.
METAR KPSO 271715Z AUTO 20006KT 10SM CLR 16/08 A3043 RMK AO2 T01550079

More Conditions Fewer Conditions

Pressure 30.43 in
Visibility 10.0 miles
Clouds Clear
Dew Point 46 °F
Humidity 61%
Rainfall 0.00 in
Snow Depth Not available.
UV 9 out of 12
Pollen 9.70 out of 12
Air Quality Not available.
Flu Activity Not available.
METAR KPSO 271715Z AUTO 20006KT 10SM CLR 16/08 A3043 RMK AO2 T01550079

More Conditions Fewer Conditions

10-Day Weather Forecast

Almanac

Astronomy

Aug. 27, 2014 Rise Set
Actual Time 6:31 AM MDT 7:41 PM MDT
Civil Twilight 6:04 AM MDT 8:08 PM MDT
Nautical Twilight 5:32 AM MDT 8:41 PM MDT
Astronomical Twilight 4:58 AM MDT 9:14 PM MDT
Moon 8:27 AM MDT 8:39 PM MDT
Length of Visible Light 14h 04m
Length of Day
13h 10m
Tomorrow will be 2m 17s shorter.
Waxing Crescent, 4% of the Moon is Illuminated
Today
Waxing Crescent
Sep 2
First Quarter
Sep 8
Full
Sep 15
Last Quarter
Sep 24
New

Today's Extremes

State Highs State Lows

Community

WunderPhotos

Upload Photos

1,747,731 photos uploaded!

Nearby

Snow Depth

Station Depth Elevation
Wolf Creek Summit 0 in 11000 ft
Upper San Juan 0 in 10130 ft
Cumbres Trestle 0 in 10020 ft
Ute Creek 0 in 10650 ft
Porphyry Creek 0 in 10760 ft

Earthquake Activity

City Distance Mag. Time & Date
No recent earthquake activity has been reported nearby.
Minimum magnitude displayed is 2.5.

Coastal Water Temperatures

Place Temperature
No Stations Reporting

Nearby Weather Stations